ESGJ/JKG METAR and TAF weather

Enter ICAO airport designator
Station Type Date Time Source
ESGJ METAR 2018/04/21 20:50 UTC NOAA

ESGJ 212050Z AUTO 25007KT 9999 NCD 07/03 Q1015


Station Type Date Time Source
ESGJ Decoded METAR 2018/04/21 20:50 UTC NOAA

Jonkoping Flygplats, Sweden (ESGJ) 57-46N 014-05E 232M
Apr 21, 2018 - 04:50 PM EDT / 2018.04.21 2050 UTC
Wind: from the WSW (250 degrees) at 8 MPH (7 KT):0
Visibility: greater than 7 mile(s):0
Temperature: 44 F (7 C)
Dew Point: 37 F (3 C)
Relative Humidity: 75%
Pressure (altimeter): 29.97 in. Hg (1015 hPa)
ob: ESGJ 212050Z AUTO 25007KT 9999 NCD 07/03 Q1015
cycle: 21

Station Type Date Time Source
ESGJ TAF 2015/05/01 23:06 UTC NOAA

TAF TAF ESGJ 302359Z 3023/0101 CNL


Example: see airport list